createdAt,value
2022-12-01T00:01:01.693Z,4.65
2022-12-01T00:03:30.988Z,4.94
2022-12-01T00:05:58.927Z,4.53
2022-12-01T00:08:25.366Z,4.34
2022-12-01T00:10:51.784Z,4.74
2022-12-01T00:13:18.190Z,4.69
2022-12-01T00:15:44.754Z,4.55
2022-12-01T00:18:11.181Z,4.49
2022-12-01T00:20:37.685Z,4.50
2022-12-01T00:23:04.089Z,4.52
2022-12-01T00:25:32.026Z,4.37
2022-12-01T00:27:58.444Z,4.37
2022-12-01T00:30:24.928Z,4.46
2022-12-01T00:32:51.337Z,4.62
2022-12-01T00:35:17.892Z,4.52
2022-12-01T00:37:44.412Z,4.53
2022-12-01T00:40:11.530Z,4.71
2022-12-01T00:42:37.991Z,4.74
2022-12-01T00:45:04.887Z,4.81
2022-12-01T00:47:31.327Z,4.71
2022-12-01T00:49:57.719Z,4.43
2022-12-01T00:52:24.122Z,4.51
2022-12-01T00:54:50.558Z,4.42
2022-12-01T00:57:17.002Z,4.54
2022-12-01T00:59:43.392Z,4.56
2022-12-01T01:02:09.852Z,4.46
2022-12-01T01:04:36.918Z,4.21
2022-12-01T01:07:03.506Z,4.62
2022-12-01T01:09:31.837Z,4.59
2022-12-01T01:11:58.323Z,4.66
2022-12-01T01:14:24.742Z,4.67
2022-12-01T01:16:51.233Z,4.55
2022-12-01T01:19:17.931Z,4.70
2022-12-01T01:21:44.363Z,4.60
2022-12-01T01:24:10.895Z,4.67
2022-12-01T01:26:37.840Z,4.73
2022-12-01T01:29:05.921Z,4.35
2022-12-01T01:31:32.669Z,4.62
2022-12-01T01:33:59.166Z,4.37
2022-12-01T01:36:26.675Z,4.14
2022-12-01T01:38:53.316Z,4.55
2022-12-01T01:41:21.262Z,4.71
2022-12-01T01:43:57.162Z,4.28
2022-12-01T01:46:28.114Z,4.83
2022-12-01T01:48:57.319Z,4.76
2022-12-01T01:51:29.517Z,4.63
2022-12-01T01:54:02.404Z,4.36
2022-12-01T01:56:29.609Z,4.74
2022-12-01T01:58:56.818Z,4.71
2022-12-01T02:01:23.335Z,4.60
2022-12-01T02:03:52.383Z,4.34
2022-12-01T02:06:19.118Z,4.57
2022-12-01T02:08:45.556Z,4.71
2022-12-01T02:11:18.495Z,4.26
2022-12-01T02:14:14.364Z,4.70
2022-12-01T02:16:46.700Z,4.62
2022-12-01T02:19:33.416Z,4.58
2022-12-01T02:22:11.687Z,4.60
2022-12-01T02:24:41.109Z,4.53
2022-12-01T02:27:31.688Z,4.54
2022-12-01T02:30:14.329Z,4.14
2022-12-01T02:32:49.275Z,4.46
2022-12-01T02:35:33.704Z,4.39
2022-12-01T02:38:21.913Z,4.27
2022-12-01T02:41:17.662Z,4.45
2022-12-01T02:43:53.224Z,4.44
2022-12-01T02:46:32.755Z,4.47
2022-12-01T02:49:06.530Z,4.12
2022-12-01T02:51:35.859Z,4.38
2022-12-01T02:54:04.635Z,4.05
2022-12-01T02:56:31.099Z,4.33
2022-12-01T02:58:57.734Z,4.26
2022-12-01T03:01:45.440Z,4.11
2022-12-01T03:04:27.226Z,4.33
2022-12-01T03:07:12.194Z,4.44
2022-12-01T03:09:57.341Z,4.34
2022-12-01T03:12:43.960Z,4.49
2022-12-01T03:15:25.409Z,4.45
2022-12-01T03:18:14.307Z,4.47
2022-12-01T03:20:55.541Z,4.47
2022-12-01T03:23:26.543Z,4.42
2022-12-01T03:25:56.341Z,4.24
2022-12-01T03:28:28.656Z,4.33
2022-12-01T03:30:59.387Z,4.33
2022-12-01T03:33:33.821Z,4.30
2022-12-01T03:36:16.545Z,4.35
2022-12-01T03:38:48.768Z,4.17
2022-12-01T03:41:25.163Z,4.38
2022-12-01T03:44:01.513Z,4.32
2022-12-01T03:46:47.497Z,4.30
2022-12-01T03:49:17.019Z,4.03
2022-12-01T03:51:46.437Z,4.09
2022-12-01T03:54:33.729Z,4.18
2022-12-01T03:57:05.303Z,4.44
2022-12-01T03:59:33.938Z,4.37
2022-12-01T04:02:00.413Z,4.48
2022-12-01T04:04:26.974Z,4.52
2022-12-01T04:06:53.661Z,4.21
2022-12-01T04:09:20.104Z,4.54
2022-12-01T04:11:46.513Z,4.54
2022-12-01T04:14:13.020Z,4.50
2022-12-01T04:16:39.519Z,4.55
2022-12-01T04:19:06.240Z,4.51
2022-12-01T04:21:32.699Z,4.48
2022-12-01T04:23:59.260Z,4.52
2022-12-01T04:26:26.569Z,4.46
2022-12-01T04:28:53.025Z,4.48
2022-12-01T04:31:19.524Z,4.50
2022-12-01T04:33:45.939Z,4.25
2022-12-01T04:36:12.359Z,4.35
2022-12-01T04:38:38.856Z,4.58
2022-12-01T04:41:09.995Z,4.57
2022-12-01T04:43:37.198Z,4.32
2022-12-01T04:46:04.297Z,4.54
2022-12-01T04:48:30.853Z,4.43
2022-12-01T04:50:57.682Z,4.37
2022-12-01T04:53:24.084Z,4.65
2022-12-01T04:55:50.830Z,4.68
2022-12-01T04:58:17.261Z,4.40
2022-12-01T05:00:43.717Z,4.40
2022-12-01T05:03:14.896Z,4.66
2022-12-01T05:05:41.720Z,4.65
2022-12-01T05:08:08.354Z,4.27
2022-12-01T05:10:36.254Z,4.64
2022-12-01T05:13:04.040Z,4.24
2022-12-01T05:15:30.763Z,4.60
2022-12-01T05:17:57.455Z,4.28
2022-12-01T05:20:26.518Z,4.65
2022-12-01T05:23:05.176Z,4.41
2022-12-01T05:25:32.255Z,4.47
2022-12-01T05:27:59.134Z,4.67
2022-12-01T05:30:28.552Z,4.67
2022-12-01T05:32:55.684Z,4.68
2022-12-01T05:35:22.137Z,4.37
2022-12-01T05:37:48.549Z,4.48
2022-12-01T05:40:15.022Z,4.69
2022-12-01T05:42:41.463Z,4.75
2022-12-01T05:45:08.384Z,4.62
2022-12-01T05:47:34.787Z,4.53
2022-12-01T05:50:05.583Z,4.57
2022-12-01T05:52:34.188Z,4.89
2022-12-01T05:55:01.086Z,4.85
2022-12-01T05:57:27.591Z,4.72
2022-12-01T05:59:54.085Z,4.98
2022-12-01T06:02:20.507Z,4.69
2022-12-01T06:04:46.979Z,4.86
2022-12-01T06:07:13.450Z,4.86
2022-12-01T06:09:39.939Z,4.65
2022-12-01T06:12:06.536Z,4.98
2022-12-01T06:14:32.954Z,4.88
2022-12-01T06:16:59.480Z,4.92
2022-12-01T06:19:25.981Z,4.92
2022-12-01T06:21:52.422Z,4.88
2022-12-01T06:24:18.899Z,4.73
2022-12-01T06:26:45.293Z,5.09
2022-12-01T06:29:11.782Z,4.93
2022-12-01T06:31:38.293Z,4.67
2022-12-01T06:34:04.693Z,5.03
2022-12-01T06:36:31.497Z,4.92
2022-12-01T06:38:57.934Z,4.76
2022-12-01T06:41:24.376Z,4.98
2022-12-01T06:43:50.736Z,4.98
2022-12-01T06:46:17.191Z,5.03
2022-12-01T06:48:43.668Z,4.77
2022-12-01T06:51:11.139Z,4.96
2022-12-01T06:53:37.607Z,5.00
2022-12-01T06:56:05.157Z,5.00
2022-12-01T06:58:32.413Z,5.02
2022-12-01T07:00:59.411Z,5.07
2022-12-01T07:03:26.109Z,5.10
2022-12-01T07:05:57.459Z,4.96
2022-12-01T07:08:24.524Z,4.96
2022-12-01T07:11:01.693Z,4.97
2022-12-01T07:13:33.103Z,4.91
2022-12-01T07:16:01.652Z,4.85
2022-12-01T07:18:28.859Z,4.75
2022-12-01T07:21:00.289Z,4.67
2022-12-01T07:23:27.082Z,4.55
2022-12-01T07:26:10.368Z,4.25
2022-12-01T07:28:36.916Z,4.31
2022-12-01T07:31:06.206Z,4.33
2022-12-01T07:33:33.015Z,4.28
2022-12-01T07:35:59.533Z,4.20
2022-12-01T07:38:31.375Z,4.20
2022-12-01T07:41:12.887Z,4.14
2022-12-01T07:43:39.867Z,4.13
2022-12-01T07:46:11.376Z,4.14
2022-12-01T07:48:39.801Z,3.95
2022-12-01T07:51:08.494Z,4.10
2022-12-01T07:53:35.164Z,3.97
2022-12-01T07:56:05.681Z,4.22
2022-12-01T07:58:35.525Z,4.12
2022-12-01T08:01:10.170Z,4.09
2022-12-01T08:03:36.684Z,3.96
2022-12-01T08:06:04.304Z,4.10
2022-12-01T08:08:33.045Z,3.81
2022-12-01T08:11:02.030Z,3.92
2022-12-01T08:13:29.132Z,3.88
2022-12-01T08:15:55.934Z,4.00
2022-12-01T08:18:22.935Z,3.98
2022-12-01T08:20:50.462Z,3.90
2022-12-01T08:23:16.950Z,3.95
2022-12-01T08:25:43.484Z,4.00
2022-12-01T08:28:09.915Z,4.06
2022-12-01T08:30:36.762Z,4.07
2022-12-01T08:33:03.400Z,4.12
2022-12-01T08:35:29.934Z,4.23
2022-12-01T08:37:56.531Z,4.00
2022-12-01T08:40:23.111Z,4.26
2022-12-01T08:42:51.992Z,3.98
2022-12-01T08:45:18.652Z,4.32
2022-12-01T08:47:45.128Z,4.23
2022-12-01T08:50:11.760Z,3.99
2022-12-01T08:52:38.269Z,4.18
2022-12-01T08:55:05.773Z,4.11
2022-12-01T08:57:32.295Z,4.28
2022-12-01T08:59:58.818Z,4.28
2022-12-01T09:02:25.408Z,4.42
2022-12-01T09:04:52.101Z,4.37
2022-12-01T09:07:25.872Z,4.57
2022-12-01T09:09:53.157Z,4.19
2022-12-01T09:12:19.760Z,4.60
2022-12-01T09:14:46.228Z,4.68
2022-12-01T09:17:12.674Z,4.44
2022-12-01T09:19:39.136Z,4.78
2022-12-01T09:22:05.685Z,4.79
2022-12-01T09:24:32.088Z,4.88
2022-12-01T09:26:59.421Z,4.93
2022-12-01T09:29:26.119Z,4.91
2022-12-01T09:31:56.525Z,4.98
2022-12-01T09:34:23.565Z,4.96
2022-12-01T09:36:50.105Z,5.01
2022-12-01T09:39:19.608Z,4.73
2022-12-01T09:41:48.916Z,4.85
2022-12-01T09:44:34.881Z,4.79
2022-12-01T09:47:33.510Z,5.10
2022-12-01T09:50:05.278Z,6.34
2022-12-01T09:52:41.403Z,6.39
2022-12-01T09:55:13.856Z,6.81
2022-12-01T09:57:41.292Z,7.22
2022-12-01T10:00:14.571Z,7.35
2022-12-01T10:02:50.934Z,7.09
2022-12-01T10:05:21.055Z,7.56
2022-12-01T10:07:50.194Z,7.10
2022-12-01T10:10:34.855Z,6.61
2022-12-01T10:13:01.439Z,6.16
2022-12-01T10:15:37.010Z,6.40
2022-12-01T10:18:13.775Z,6.44
2022-12-01T10:20:44.582Z,6.68
2022-12-01T10:23:29.235Z,6.83
2022-12-01T10:25:58.355Z,6.81
2022-12-01T10:28:52.739Z,7.23
2022-12-01T10:31:20.509Z,7.24
2022-12-01T10:34:36.501Z,6.36
2022-12-01T10:37:03.405Z,5.93
2022-12-01T10:39:35.042Z,6.15
2022-12-01T10:42:13.382Z,6.07
2022-12-01T10:44:40.257Z,5.96
2022-12-01T10:47:26.536Z,6.06
2022-12-01T10:49:53.230Z,6.15
2022-12-01T10:52:40.607Z,6.19
2022-12-01T10:55:25.266Z,6.43
2022-12-01T10:57:54.127Z,6.37
2022-12-01T11:01:01.232Z,6.79
2022-12-01T11:03:22.454Z,6.66
2022-12-01T11:05:58.286Z,6.67
2022-12-01T11:08:38.998Z,6.42
2022-12-01T11:11:06.098Z,5.72
2022-12-01T11:13:36.368Z,6.28
2022-12-01T11:16:06.104Z,6.27
2022-12-01T11:18:38.444Z,6.06
2022-12-01T11:21:25.468Z,6.29
2022-12-01T11:23:54.728Z,6.34
2022-12-01T11:26:21.100Z,6.36
2022-12-01T11:28:53.572Z,6.23
2022-12-01T11:31:25.647Z,6.77
2022-12-01T11:33:54.462Z,6.75
2022-12-01T11:36:44.613Z,6.72
2022-12-01T11:39:26.948Z,6.69
2022-12-01T11:41:59.366Z,6.57
2022-12-01T11:44:50.361Z,6.79
2022-12-01T11:47:23.241Z,7.44
2022-12-01T11:50:01.250Z,7.15
2022-12-01T11:52:36.128Z,7.23
2022-12-01T11:55:23.277Z,7.26
2022-12-01T11:57:52.623Z,7.49
2022-12-01T12:00:25.365Z,7.77
2022-12-01T12:03:04.064Z,7.65
2022-12-01T12:05:49.404Z,7.52
2022-12-01T12:08:44.853Z,7.47
2022-12-01T12:11:18.990Z,7.82
2022-12-01T12:14:28.940Z,8.16
2022-12-01T12:17:09.389Z,7.84
2022-12-01T12:20:08.087Z,7.65
2022-12-01T12:22:34.865Z,8.08
2022-12-01T12:25:05.907Z,8.02
2022-12-01T12:27:46.835Z,8.40
2022-12-01T12:30:18.973Z,8.15
2022-12-01T12:33:11.796Z,8.39
2022-12-01T12:35:48.124Z,8.11
2022-12-01T12:38:32.686Z,8.18
2022-12-01T12:41:16.801Z,7.91
2022-12-01T12:44:05.084Z,8.17
2022-12-01T12:47:07.753Z,8.33
2022-12-01T12:49:46.905Z,8.87
2022-12-01T12:52:19.701Z,9.08
2022-12-01T12:54:53.076Z,8.63
2022-12-01T12:57:31.426Z,8.68
2022-12-01T13:00:03.499Z,8.10
2022-12-01T13:02:39.035Z,8.65
2022-12-01T13:05:23.340Z,7.91
2022-12-01T13:07:56.028Z,7.53
2022-12-01T13:10:42.529Z,7.41
2022-12-01T13:13:33.993Z,7.06
2022-12-01T13:16:03.482Z,7.09
2022-12-01T13:18:34.069Z,7.13
2022-12-01T13:21:03.265Z,6.99
2022-12-01T13:23:30.755Z,6.99
2022-12-01T13:26:01.170Z,6.97
2022-12-01T13:28:34.355Z,6.77
2022-12-01T13:31:09.791Z,7.12
2022-12-01T13:33:38.854Z,7.15
2022-12-01T13:39:03.215Z,6.83
2022-12-01T13:41:33.209Z,6.98
2022-12-01T13:44:07.976Z,6.84
2022-12-01T13:46:37.159Z,6.82
2022-12-01T13:49:04.682Z,6.74
2022-12-01T13:52:09.431Z,6.69
2022-12-01T13:54:36.670Z,7.03
2022-12-01T13:57:13.855Z,6.95
2022-12-01T14:00:02.198Z,7.27
2022-12-01T14:02:34.293Z,6.58
2022-12-01T14:05:22.753Z,6.82
2022-12-01T14:07:58.429Z,6.59
2022-12-01T14:10:32.916Z,6.48
2022-12-01T14:13:03.786Z,6.40
2022-12-01T14:15:37.643Z,6.63
2022-12-01T14:18:18.290Z,6.68
2022-12-01T14:20:47.081Z,6.51
2022-12-01T14:23:23.259Z,6.51
2022-12-01T14:26:22.543Z,6.66
2022-12-01T14:28:55.093Z,6.83
2022-12-01T14:31:44.299Z,7.00
2022-12-01T14:34:18.746Z,6.93
2022-12-01T14:36:53.482Z,6.73
2022-12-01T14:39:26.082Z,6.64
2022-12-01T14:41:59.962Z,6.59
2022-12-01T14:44:34.719Z,6.47
2022-12-01T14:47:10.093Z,6.80
2022-12-01T14:49:42.931Z,6.79
2022-12-01T14:52:38.362Z,6.45
2022-12-01T14:55:13.320Z,6.15
2022-12-01T14:57:44.037Z,5.99
2022-12-01T15:00:15.820Z,5.71
2022-12-01T15:02:48.327Z,5.83
2022-12-01T15:05:17.459Z,5.79
2022-12-01T15:07:47.445Z,5.84
2022-12-01T15:10:27.215Z,5.75
2022-12-01T15:12:54.096Z,5.52
2022-12-01T15:15:25.971Z,5.59
2022-12-01T15:17:54.063Z,5.33
2022-12-01T15:20:37.223Z,5.38
2022-12-01T15:23:15.495Z,5.22
2022-12-01T15:25:44.096Z,5.30
2022-12-01T15:28:14.859Z,5.35
2022-12-01T15:30:43.663Z,5.07
2022-12-01T15:33:37.417Z,5.27
2022-12-01T15:36:05.540Z,5.29
2022-12-01T15:38:35.766Z,5.21
2022-12-01T15:43:59.842Z,5.11
2022-12-01T15:46:31.962Z,5.09
2022-12-01T15:49:24.042Z,5.00
2022-12-01T15:51:51.871Z,4.69
2022-12-01T15:54:25.393Z,4.76
2022-12-01T15:56:54.417Z,4.62
2022-12-01T15:59:41.235Z,4.68
2022-12-01T16:02:19.907Z,4.63
2022-12-01T16:04:48.071Z,4.65
2022-12-01T16:07:15.256Z,4.70
2022-12-01T16:10:01.103Z,4.73
2022-12-01T16:12:29.646Z,4.67
2022-12-01T16:15:02.229Z,4.65
2022-12-01T16:17:41.987Z,4.67
2022-12-01T16:20:24.468Z,4.29
2022-12-01T16:22:56.912Z,4.19
2022-12-01T16:25:35.905Z,4.37
2022-12-01T16:28:03.893Z,4.18
2022-12-01T16:30:37.248Z,4.45
2022-12-01T16:33:06.859Z,4.47
2022-12-01T16:35:34.184Z,4.41
2022-12-01T16:38:11.852Z,4.29
2022-12-01T16:40:41.302Z,4.05
2022-12-01T16:43:13.627Z,4.36
2022-12-01T16:45:40.126Z,4.01
2022-12-01T16:48:09.469Z,4.07
2022-12-01T16:50:36.459Z,4.06
2022-12-01T16:53:03.403Z,3.95
2022-12-01T16:55:35.920Z,4.00
2022-12-01T16:58:02.409Z,3.95
2022-12-01T17:00:29.066Z,3.93
2022-12-01T17:02:55.896Z,4.00
2022-12-01T17:05:22.380Z,3.73
2022-12-01T17:07:49.013Z,4.02
2022-12-01T17:10:15.867Z,3.60
2022-12-01T17:12:42.386Z,3.93
2022-12-01T17:15:09.438Z,3.98
2022-12-01T17:17:36.471Z,3.55
2022-12-01T17:20:05.167Z,3.97
2022-12-01T17:22:31.560Z,3.85
2022-12-01T17:24:58.053Z,3.90
2022-12-01T17:27:24.717Z,3.93
2022-12-01T17:29:51.316Z,3.92
2022-12-01T17:32:17.750Z,3.90
2022-12-01T17:34:44.246Z,3.80
2022-12-01T17:37:12.140Z,3.53
2022-12-01T17:39:41.353Z,3.76
2022-12-01T17:42:08.104Z,3.77
2022-12-01T17:44:35.239Z,3.87
2022-12-01T17:47:01.709Z,3.81
2022-12-01T17:49:28.181Z,3.76
2022-12-01T17:51:54.673Z,3.52
2022-12-01T17:54:21.193Z,3.45
2022-12-01T17:56:47.818Z,3.57
2022-12-01T17:59:14.860Z,3.64
2022-12-01T18:01:41.319Z,3.49
2022-12-01T18:04:07.839Z,3.60
2022-12-01T18:06:34.465Z,3.30
2022-12-01T18:09:01.191Z,3.42
2022-12-01T18:11:27.964Z,3.18
2022-12-01T18:13:54.413Z,3.52
2022-12-01T18:16:24.816Z,3.53
2022-12-01T18:18:52.216Z,3.36
2022-12-01T18:21:20.204Z,3.47
2022-12-01T18:23:50.623Z,3.39
2022-12-01T18:26:17.604Z,3.09
2022-12-01T18:28:44.420Z,3.32
2022-12-01T18:31:13.626Z,3.36
2022-12-01T18:33:42.306Z,3.06
2022-12-01T18:36:14.539Z,2.92
2022-12-01T18:38:41.424Z,2.97
2022-12-01T18:41:08.473Z,3.27
2022-12-01T18:43:35.946Z,3.23
2022-12-01T18:46:04.475Z,3.16
2022-12-01T18:48:30.969Z,3.05
2022-12-01T18:51:04.949Z,3.26
2022-12-01T18:53:32.315Z,3.22
2022-12-01T18:56:06.935Z,3.24
2022-12-01T18:58:33.883Z,2.84
2022-12-01T19:01:01.402Z,3.09
2022-12-01T19:03:32.013Z,2.78
2022-12-01T19:05:59.177Z,3.00
2022-12-01T19:08:25.585Z,3.01
2022-12-01T19:11:03.698Z,2.90
2022-12-01T19:13:32.061Z,3.04
2022-12-01T19:15:58.794Z,3.12
2022-12-01T19:18:25.238Z,2.81
2022-12-01T19:20:51.681Z,3.08
2022-12-01T19:23:18.096Z,3.01
2022-12-01T19:25:44.541Z,3.05
2022-12-01T19:28:11.064Z,2.69
2022-12-01T19:30:38.272Z,2.94
2022-12-01T19:33:04.787Z,2.90
2022-12-01T19:35:31.512Z,3.01
2022-12-01T19:37:57.976Z,3.02
2022-12-01T19:40:24.449Z,2.93
2022-12-01T19:42:50.909Z,2.85
2022-12-01T19:45:17.426Z,2.93
2022-12-01T19:47:43.825Z,2.79
2022-12-01T19:50:10.621Z,2.96
2022-12-01T19:52:37.214Z,2.94
2022-12-01T19:55:03.716Z,2.90
2022-12-01T19:57:30.121Z,2.85
2022-12-01T19:59:56.639Z,2.79
2022-12-01T20:02:28.800Z,2.63
2022-12-01T20:04:55.720Z,2.39
2022-12-01T20:07:22.456Z,2.66
2022-12-01T20:09:50.241Z,2.71
2022-12-01T20:12:17.069Z,2.34
2022-12-01T20:14:43.635Z,2.70
2022-12-01T20:17:15.576Z,2.38
2022-12-01T20:19:42.500Z,2.63
2022-12-01T20:22:09.038Z,2.64
2022-12-01T20:24:35.855Z,2.70
2022-12-01T20:27:02.335Z,2.63
2022-12-01T20:29:29.635Z,2.64
2022-12-01T20:31:58.348Z,2.36
2022-12-01T20:34:31.389Z,2.67
2022-12-01T20:36:58.336Z,2.63
2022-12-01T20:39:24.874Z,2.66
2022-12-01T20:41:51.398Z,2.64
2022-12-01T20:44:18.134Z,2.54
2022-12-01T20:46:44.842Z,2.64
2022-12-01T20:49:12.296Z,2.61
2022-12-01T20:51:39.031Z,2.57
2022-12-01T20:56:53.840Z,2.54
2022-12-01T20:59:20.349Z,2.49
2022-12-01T21:01:46.814Z,2.55
2022-12-01T21:04:13.281Z,2.48
2022-12-01T21:06:39.799Z,2.53
2022-12-01T21:09:06.261Z,2.52
2022-12-01T21:11:45.711Z,2.13
2022-12-01T21:14:36.777Z,2.46
2022-12-01T21:17:18.583Z,1.98
2022-12-01T21:20:28.680Z,2.40
2022-12-01T21:23:05.306Z,2.30
2022-12-01T21:25:31.785Z,2.17
2022-12-01T21:28:02.728Z,2.05
2022-12-01T21:30:29.240Z,2.21
2022-12-01T21:33:14.629Z,2.46
2022-12-01T21:35:41.042Z,2.44
2022-12-01T21:38:12.226Z,2.38
2022-12-01T21:40:41.563Z,2.33
2022-12-01T21:43:24.454Z,2.47
2022-12-01T21:45:57.766Z,2.49
2022-12-01T21:48:24.756Z,2.47
2022-12-01T21:50:59.250Z,2.37
2022-12-01T21:53:31.201Z,2.42
2022-12-01T21:55:57.717Z,2.41
2022-12-01T21:58:30.708Z,2.40
2022-12-01T22:00:58.802Z,2.37
2022-12-01T22:03:28.918Z,2.39
2022-12-01T22:08:55.644Z,2.54
2022-12-01T22:11:27.517Z,2.51
2022-12-01T22:13:59.736Z,2.63
2022-12-01T22:16:30.742Z,2.72
2022-12-01T22:19:08.375Z,2.86
2022-12-01T22:21:39.702Z,2.89
2022-12-01T22:24:08.928Z,2.80
2022-12-01T22:26:37.829Z,2.97
2022-12-01T22:29:23.143Z,3.04
2022-12-01T22:31:49.621Z,3.06
2022-12-01T22:34:19.856Z,2.98
2022-12-01T22:36:46.364Z,3.04
2022-12-01T22:39:31.862Z,2.98
2022-12-01T22:42:01.615Z,2.75
2022-12-01T22:44:31.056Z,3.15
2022-12-01T22:47:02.030Z,3.09
2022-12-01T22:49:29.327Z,3.03
2022-12-01T22:51:55.664Z,3.22
2022-12-01T22:54:26.682Z,3.18
2022-12-01T22:57:03.710Z,3.24
2022-12-01T22:59:39.598Z,3.16
2022-12-01T23:02:15.373Z,3.22
2022-12-01T23:04:44.598Z,2.91
2022-12-01T23:07:28.235Z,3.18
2022-12-01T23:09:57.375Z,3.29
2022-12-01T23:12:32.626Z,3.31
2022-12-01T23:15:07.019Z,3.40
2022-12-01T23:17:33.496Z,3.38
2022-12-01T23:20:24.502Z,2.95
2022-12-01T23:22:59.265Z,3.39
2022-12-01T23:25:26.977Z,3.30
2022-12-01T23:27:55.316Z,2.98
2022-12-01T23:30:22.553Z,3.09
2022-12-01T23:33:18.910Z,2.77
2022-12-01T23:35:51.714Z,2.80
2022-12-01T23:38:41.051Z,3.02
2022-12-01T23:41:12.910Z,3.19
2022-12-01T23:43:42.819Z,3.15
2022-12-01T23:46:16.043Z,3.32
2022-12-01T23:48:52.354Z,3.29
2022-12-01T23:51:20.578Z,3.39
2022-12-01T23:53:47.188Z,2.97
2022-12-01T23:56:20.412Z,3.50
2022-12-01T23:58:47.675Z,3.20
